Time;durP1;ratioP1;P1;durP2;ratioP2;P2;SDS_P1;SDS_P2;PMS_P1;PMS_P2;Temp;Humidity;BMP_temperature;BMP_pressure;BME280_temperature;BME280_humidity;BME280_pressure;Samples;Min_cycle;Max_cycle;Signal;HPM_P1;HPM_P2
2023/09/05 00:00:17;;;;;;;0.00;0.00;;;;;;;;;;5093103;28;20040;-82
2023/09/05 00:02:44;;;;;;;0.00;0.00;;;;;;;;;;5093480;28;20040;-83
2023/09/05 00:05:11;;;;;;;0.00;0.00;;;;;;;;;;5076057;28;20441;-83
2023/09/05 00:07:38;;;;;;;0.00;0.00;;;;;;;;;;5076505;28;20046;-83
2023/09/05 00:10:04;;;;;;;0.00;0.00;;;;;;;;;;5094511;28;20040;-84
2023/09/05 00:12:31;;;;;;;0.00;0.00;;;;;;;;;;5093000;28;20039;-83
2023/09/05 00:14:57;;;;;;;0.00;0.00;;;;;;;;;;5094258;28;20067;-82
2023/09/05 00:17:23;;;;;;;0.00;0.00;;;;;;;;;;5092588;28;20052;-82
2023/09/05 00:19:49;;;;;;;0.00;0.00;;;;;;;;;;5094421;28;20075;-83
2023/09/05 00:22:16;;;;;;;0.10;0.00;;;;;;;;;;5094202;28;20043;-82
2023/09/05 00:24:43;;;;;;;0.00;0.00;;;;;;;;;;5094370;28;20139;-82
2023/09/05 00:27:10;;;;;;;0.00;0.00;;;;;;;;;;5092966;28;20051;-82
2023/09/05 00:29:37;;;;;;;0.00;0.00;;;;;;;;;;5092696;28;20502;-83
2023/09/05 00:32:03;;;;;;;0.00;0.00;;;;;;;;;;5092773;28;20048;-83
2023/09/05 00:34:31;;;;;;;0.00;0.00;;;;;;;;;;5094151;28;20055;-82
2023/09/05 00:37:00;;;;;;;0.00;0.00;;;;;;;;;;5093585;28;20474;-82
2023/09/05 00:39:30;;;;;;;0.25;0.25;;;;;;;;;;5075766;28;21387;-82
2023/09/05 00:41:56;;;;;;;0.00;0.00;;;;;;;;;;5092567;28;20048;-82
2023/09/05 00:44:25;;;;;;;0.00;0.00;;;;;;;;;;5093769;28;20044;-82
2023/09/05 00:46:52;;;;;;;0.00;0.00;;;;;;;;;;5093752;28;20337;-82
2023/09/05 00:49:22;;;;;;;0.00;0.00;;;;;;;;;;5092662;28;20388;-82
2023/09/05 00:51:50;;;;;;;0.00;0.00;;;;;;;;;;5092227;28;20043;-82
2023/09/05 00:54:16;;;;;;;0.00;0.00;;;;;;;;;;5093408;28;20040;-82
2023/09/05 00:56:43;;;;;;;0.00;0.00;;;;;;;;;;5092083;28;20045;-83
2023/09/05 00:59:10;;;;;;;0.00;0.00;;;;;;;;;;5092292;28;20070;-82
2023/09/05 01:01:36;;;;;;;0.00;0.00;;;;;;;;;;5093491;28;20043;-82
2023/09/05 01:04:02;;;;;;;0.00;0.00;;;;;;;;;;5092314;28;20105;-82
2023/09/05 01:06:34;;;;;;;0.00;0.00;;;;;;;;;;5091890;28;20407;-83
2023/09/05 01:09:08;;;;;;;0.00;0.00;;;;;;;;;;5092281;28;20364;-83
2023/09/05 01:11:34;;;;;;;0.00;0.00;;;;;;;;;;5092001;28;20043;-82
2023/09/05 01:14:00;;;;;;;0.00;0.00;;;;;;;;;;5093160;28;20479;-83
2023/09/05 01:16:26;;;;;;;0.10;0.10;;;;;;;;;;5091660;28;20052;-83
2023/09/05 01:18:52;;;;;;;0.00;0.00;;;;;;;;;;5091923;28;20399;-83
2023/09/05 01:21:21;;;;;;;0.00;0.00;;;;;;;;;;5091993;28;20135;-83
2023/09/05 01:23:51;;;;;;;0.00;0.00;;;;;;;;;;5093211;28;20506;-83
2023/09/05 01:26:17;;;;;;;0.00;0.00;;;;;;;;;;5091540;28;20103;-82
2023/09/05 01:28:43;;;;;;;0.00;0.00;;;;;;;;;;5091751;28;20044;-82
2023/09/05 01:31:10;;;;;;;0.00;0.00;;;;;;;;;;5091391;28;20083;-82
2023/09/05 01:33:37;;;;;;;0.00;0.00;;;;;;;;;;5091654;28;20048;-82
2023/09/05 01:36:04;;;;;;;0.00;0.00;;;;;;;;;;5092809;28;20055;-83
2023/09/05 01:38:30;;;;;;;0.00;0.00;;;;;;;;;;5092977;28;20151;-83
2023/09/05 01:40:56;;;;;;;0.00;0.00;;;;;;;;;;5091502;28;20422;-82
2023/09/05 01:43:21;;;;;;;0.00;0.00;;;;;;;;;;5091404;28;20040;-82
2023/09/05 01:45:47;;;;;;;0.00;0.00;;;;;;;;;;5091564;28;20067;-82
2023/09/05 01:48:13;;;;;;;0.00;0.00;;;;;;;;;;5091306;28;20379;-82
2023/09/05 01:50:39;;;;;;;0.00;0.00;;;;;;;;;;5092915;28;20148;-83
2023/09/05 01:53:05;;;;;;;0.00;0.00;;;;;;;;;;5092261;28;20040;-82
2023/09/05 01:55:31;;;;;;;0.00;0.00;;;;;;;;;;5092455;28;20040;-82
2023/09/05 01:57:57;;;;;;;0.00;0.00;;;;;;;;;;5091145;28;20043;-82
2023/09/05 02:00:23;;;;;;;0.00;0.00;;;;;;;;;;5091537;28;20040;-82
2023/09/05 02:02:49;;;;;;;0.00;0.00;;;;;;;;;;5092648;28;20111;-83
2023/09/05 02:05:15;;;;;;;0.00;0.00;;;;;;;;;;5092824;28;20036;-82
2023/09/05 02:07:41;;;;;;;0.00;0.00;;;;;;;;;;5095333;28;20387;-82
2023/09/05 02:10:07;;;;;;;0.00;0.00;;;;;;;;;;5096977;28;20119;-82
2023/09/05 02:12:34;;;;;;;0.00;0.00;;;;;;;;;;5096824;28;20036;-82
2023/09/05 02:15:00;;;;;;;0.00;0.00;;;;;;;;;;5096437;28;20135;-82
2023/09/05 02:17:31;;;;;;;0.52;0.52;;;;;;;;;;5095342;28;20120;-82
2023/09/05 02:20:00;;;;;;;0.08;0.00;;;;;;;;;;5095415;28;20392;-83
2023/09/05 02:22:26;;;;;;;0.00;0.00;;;;;;;;;;5095136;28;20075;-82
2023/09/05 02:24:52;;;;;;;0.00;0.00;;;;;;;;;;5095411;28;20493;-82
2023/09/05 02:27:18;;;;;;;0.10;0.10;;;;;;;;;;5094993;28;20040;-82
2023/09/05 02:29:49;;;;;;;0.00;0.00;;;;;;;;;;5096541;28;20122;-82
2023/09/05 02:32:17;;;;;;;0.00;0.00;;;;;;;;;;5095302;28;20049;-83
2023/09/05 02:34:43;;;;;;;0.00;0.00;;;;;;;;;;5094927;28;20048;-83
2023/09/05 02:37:09;;;;;;;0.00;0.00;;;;;;;;;;5094843;28;20071;-82
2023/09/05 02:39:35;;;;;;;0.85;0.10;;;;;;;;;;5096384;28;20055;-82
2023/09/05 02:42:03;;;;;;;0.00;0.00;;;;;;;;;;5094817;28;20043;-82
2023/09/05 02:44:29;;;;;;;0.00;0.00;;;;;;;;;;5094944;28;20043;-82
2023/09/05 02:46:55;;;;;;;0.00;0.00;;;;;;;;;;5078153;28;20044;-82
2023/09/05 02:49:21;;;;;;;0.00;0.00;;;;;;;;;;5094675;28;20044;-82
2023/09/05 02:51:47;;;;;;;0.00;0.00;;;;;;;;;;5094709;28;20040;-82
2023/09/05 02:54:12;;;;;;;0.00;0.00;;;;;;;;;;5096240;28;20086;-82
2023/09/05 02:56:38;;;;;;;0.00;0.00;;;;;;;;;;5094686;28;20040;-83
2023/09/05 02:59:04;;;;;;;0.28;0.10;;;;;;;;;;5095858;28;20058;-82
2023/09/05 03:01:30;;;;;;;0.00;0.00;;;;;;;;;;5094829;28;20051;-82
2023/09/05 03:03:56;;;;;;;0.00;0.00;;;;;;;;;;5094595;28;20109;-82
2023/09/05 03:06:23;;;;;;;0.00;0.00;;;;;;;;;;5094777;28;20078;-82
2023/09/05 03:08:49;;;;;;;0.00;0.00;;;;;;;;;;5094660;28;20567;-83
2023/09/05 03:11:15;;;;;;;0.00;0.00;;;;;;;;;;5096388;28;20262;-83
2023/09/05 03:13:42;;;;;;;0.00;0.00;;;;;;;;;;5094798;28;20051;-83
2023/09/05 03:16:08;;;;;;;0.20;0.10;;;;;;;;;;5094385;28;20059;-83
2023/09/05 03:18:34;;;;;;;0.00;0.00;;;;;;;;;;5094214;28;20044;-83
2023/09/05 03:21:00;;;;;;;0.00;0.00;;;;;;;;;;5096287;28;20032;-82
2023/09/05 03:23:26;;;;;;;0.00;0.00;;;;;;;;;;5094014;28;20055;-82
2023/09/05 03:25:52;;;;;;;0.00;0.00;;;;;;;;;;5094353;28;20047;-81
2023/09/05 03:28:19;;;;;;;0.00;0.00;;;;;;;;;;5095136;28;20440;-82
2023/09/05 03:30:45;;;;;;;0.00;0.00;;;;;;;;;;5094118;28;20040;-82
2023/09/05 03:33:11;;;;;;;0.00;0.00;;;;;;;;;;5093785;28;20051;-82
2023/09/05 03:35:37;;;;;;;0.00;0.00;;;;;;;;;;5095438;28;20498;-82
2023/09/05 03:38:06;;;;;;;0.00;0.00;;;;;;;;;;5093828;28;20067;-82
2023/09/05 03:40:32;;;;;;;0.00;0.00;;;;;;;;;;5095138;28;20508;-82
2023/09/05 03:42:58;;;;;;;0.05;0.05;;;;;;;;;;5093896;28;20395;-82
2023/09/05 03:45:24;;;;;;;0.00;0.00;;;;;;;;;;5093891;28;20120;-83
2023/09/05 03:47:50;;;;;;;0.00;0.00;;;;;;;;;;5093949;28;20050;-82
2023/09/05 03:50:17;;;;;;;0.00;0.00;;;;;;;;;;5093901;28;20122;-83
2023/09/05 03:52:44;;;;;;;0.00;0.00;;;;;;;;;;5093769;28;20109;-82
2023/09/05 03:55:10;;;;;;;0.00;0.00;;;;;;;;;;5095124;28;20051;-83
2023/09/05 03:57:37;;;;;;;0.30;0.30;;;;;;;;;;5094822;28;20487;-82
2023/09/05 04:00:03;;;;;;;0.00;0.00;;;;;;;;;;5094817;28;20050;-82
2023/09/05 04:02:29;;;;;;;0.00;0.00;;;;;;;;;;5094430;28;20138;-83
2023/09/05 04:04:55;;;;;;;0.00;0.00;;;;;;;;;;5094876;28;20066;-82
2023/09/05 04:07:22;;;;;;;0.00;0.00;;;;;;;;;;5076639;28;20044;-83
2023/09/05 04:09:48;;;;;;;0.00;0.00;;;;;;;;;;5093320;28;20044;-83
2023/09/05 04:12:15;;;;;;;0.00;0.00;;;;;;;;;;5093305;28;20142;-83
2023/09/05 04:14:41;;;;;;;0.00;0.00;;;;;;;;;;5092951;28;20399;-83
2023/09/05 04:17:07;;;;;;;0.00;0.00;;;;;;;;;;5093192;28;20048;-83
2023/09/05 04:19:33;;;;;;;0.00;0.00;;;;;;;;;;5076074;28;20044;-83
2023/09/05 04:21:59;;;;;;;0.00;0.00;;;;;;;;;;5093115;28;20036;-83
2023/09/05 04:24:25;;;;;;;0.00;0.00;;;;;;;;;;5093041;28;20369;-83
2023/09/05 04:26:53;;;;;;;0.00;0.00;;;;;;;;;;5094581;28;20040;-83
2023/09/05 04:29:19;;;;;;;0.30;0.10;;;;;;;;;;5093362;28;20050;-83
2023/09/05 04:31:45;;;;;;;0.00;0.00;;;;;;;;;;5093303;28;20044;-83
2023/09/05 04:34:11;;;;;;;0.00;0.00;;;;;;;;;;5092579;28;20502;-82
2023/09/05 04:36:37;;;;;;;0.00;0.00;;;;;;;;;;5094245;28;20394;-83
2023/09/05 04:39:03;;;;;;;0.00;0.00;;;;;;;;;;5092979;28;20040;-83
2023/09/05 04:41:29;;;;;;;0.00;0.00;;;;;;;;;;5093626;28;20032;-82
2023/09/05 04:43:55;;;;;;;0.00;0.00;;;;;;;;;;5092542;28;20384;-83
2023/09/05 04:46:22;;;;;;;0.00;0.00;;;;;;;;;;5092809;28;20539;-83
2023/09/05 04:48:49;;;;;;;0.00;0.00;;;;;;;;;;5093847;28;20040;-83
2023/09/05 04:51:15;;;;;;;0.00;0.00;;;;;;;;;;5092484;28;20467;-83
2023/09/05 04:53:41;;;;;;;0.10;0.00;;;;;;;;;;5092125;28;20063;-82
2023/09/05 04:56:07;;;;;;;0.00;0.00;;;;;;;;;;5075982;28;20139;-83
2023/09/05 04:58:33;;;;;;;0.15;0.00;;;;;;;;;;5092091;28;20468;-83
2023/09/05 05:01:02;;;;;;;0.00;0.00;;;;;;;;;;5092252;28;20036;-83
2023/09/05 05:03:32;;;;;;;0.00;0.00;;;;;;;;;;5075497;28;20050;-82
2023/09/05 05:05:57;;;;;;;0.00;0.00;;;;;;;;;;5092185;28;20511;-82
2023/09/05 05:08:24;;;;;;;0.00;0.00;;;;;;;;;;5093346;28;20062;-83
2023/09/05 05:10:50;;;;;;;0.00;0.00;;;;;;;;;;5093299;28;20040;-83
2023/09/05 05:13:15;;;;;;;0.00;0.00;;;;;;;;;;5091804;28;20043;-82
2023/09/05 05:15:45;;;;;;;0.00;0.00;;;;;;;;;;5092971;28;20052;-83
2023/09/05 05:18:11;;;;;;;0.00;0.00;;;;;;;;;;5091702;28;20047;-82
2023/09/05 05:20:37;;;;;;;0.00;0.00;;;;;;;;;;5092285;28;20040;-82
2023/09/05 05:23:04;;;;;;;0.00;0.00;;;;;;;;;;5092145;28;20039;-83
2023/09/05 05:25:30;;;;;;;0.00;0.00;;;;;;;;;;5091754;28;20054;-82
2023/09/05 05:27:59;;;;;;;0.00;0.00;;;;;;;;;;5093262;28;20115;-83
2023/09/05 05:30:25;;;;;;;0.00;0.00;;;;;;;;;;5091549;28;20146;-83
2023/09/05 05:32:51;;;;;;;0.00;0.00;;;;;;;;;;5075234;28;20040;-83
2023/09/05 05:35:17;;;;;;;0.00;0.00;;;;;;;;;;5091638;28;20040;-84
2023/09/05 05:37:43;;;;;;;0.00;0.00;;;;;;;;;;5092943;28;20087;-83
2023/09/05 05:40:13;;;;;;;0.00;0.00;;;;;;;;;;5091305;28;20172;-83
2023/09/05 05:42:39;;;;;;;0.00;0.00;;;;;;;;;;5091920;28;20157;-83
2023/09/05 05:45:05;;;;;;;0.00;0.00;;;;;;;;;;5091252;28;20063;-84
2023/09/05 05:47:31;;;;;;;0.00;0.00;;;;;;;;;;5091949;28;20068;-83
2023/09/05 05:49:57;;;;;;;0.00;0.00;;;;;;;;;;5091228;28;20358;-83
2023/09/05 05:52:23;;;;;;;0.00;0.00;;;;;;;;;;5091561;28;20089;-83
2023/09/05 05:54:49;;;;;;;0.00;0.00;;;;;;;;;;5091225;28;20036;-83
2023/09/05 05:57:15;;;;;;;0.00;0.00;;;;;;;;;;5093067;28;20116;-83
2023/09/05 05:59:41;;;;;;;0.00;0.00;;;;;;;;;;5091143;28;20456;-83
2023/09/05 06:02:07;;;;;;;0.00;0.00;;;;;;;;;;5091433;28;20047;-83
2023/09/05 06:04:33;;;;;;;0.00;0.00;;;;;;;;;;5092493;28;20047;-83
2023/09/05 06:06:59;;;;;;;0.00;0.00;;;;;;;;;;5091241;28;20055;-82
2023/09/05 06:09:26;;;;;;;0.10;0.00;;;;;;;;;;5090755;28;20044;-83
2023/09/05 06:11:52;;;;;;;0.00;0.00;;;;;;;;;;5091266;28;20047;-83
2023/09/05 06:14:18;;;;;;;0.00;0.00;;;;;;;;;;5091109;28;20040;-82
2023/09/05 06:16:46;;;;;;;0.00;0.00;;;;;;;;;;5092758;28;20045;-83
2023/09/05 06:19:12;;;;;;;0.00;0.00;;;;;;;;;;5091167;28;20443;-83
2023/09/05 06:21:38;;;;;;;0.00;0.00;;;;;;;;;;5091363;28;20047;-82
2023/09/05 06:24:05;;;;;;;0.00;0.00;;;;;;;;;;5092323;28;20079;-83
2023/09/05 06:26:30;;;;;;;0.00;0.00;;;;;;;;;;5091419;28;20119;-85
2023/09/05 06:28:56;;;;;;;0.00;0.00;;;;;;;;;;5091117;28;20554;-85
2023/09/05 06:31:22;;;;;;;0.00;0.00;;;;;;;;;;5091400;28;20048;-86
2023/09/05 06:33:49;;;;;;;0.00;0.00;;;;;;;;;;5074203;28;20069;-84
2023/09/05 06:36:15;;;;;;;0.00;0.00;;;;;;;;;;5090862;28;20040;-83
2023/09/05 06:38:41;;;;;;;0.00;0.00;;;;;;;;;;5090968;28;20089;-84
2023/09/05 06:41:08;;;;;;;0.00;0.00;;;;;;;;;;5092138;28;20042;-83
2023/09/05 06:43:34;;;;;;;0.00;0.00;;;;;;;;;;5074176;28;20471;-83
2023/09/05 06:46:01;;;;;;;0.00;0.00;;;;;;;;;;5092320;28;20044;-84
2023/09/05 06:48:27;;;;;;;0.00;0.00;;;;;;;;;;5091382;28;20055;-90
2023/09/05 06:50:53;;;;;;;0.00;0.00;;;;;;;;;;5091382;28;20512;-87
2023/09/05 06:53:19;;;;;;;0.00;0.00;;;;;;;;;;5094650;28;20063;-85
2023/09/05 06:55:46;;;;;;;0.00;0.00;;;;;;;;;;5096031;28;20081;-81
2023/09/05 06:58:11;;;;;;;0.00;0.00;;;;;;;;;;5094947;28;20048;-84
2023/09/05 07:00:39;;;;;;;0.00;0.00;;;;;;;;;;5094514;28;20051;-85
2023/09/05 07:03:05;;;;;;;0.00;0.00;;;;;;;;;;5094762;28;20477;-83
2023/09/05 07:05:31;;;;;;;0.00;0.00;;;;;;;;;;5094549;28;20119;-84
2023/09/05 07:07:57;;;;;;;0.00;0.00;;;;;;;;;;5094406;28;20048;-84
2023/09/05 07:10:23;;;;;;;0.00;0.00;;;;;;;;;;5094129;28;20040;-83
2023/09/05 07:12:49;;;;;;;0.00;0.00;;;;;;;;;;5077434;28;20039;-84
2023/09/05 07:15:15;;;;;;;0.00;0.00;;;;;;;;;;5095294;28;20398;-84
2023/09/05 07:17:41;;;;;;;0.00;0.00;;;;;;;;;;5094460;28;20071;-83
2023/09/05 07:20:09;;;;;;;0.00;0.00;;;;;;;;;;5095352;28;20090;-84
2023/09/05 07:22:35;;;;;;;0.00;0.00;;;;;;;;;;5094229;28;20036;-83
2023/09/05 07:25:01;;;;;;;0.00;0.00;;;;;;;;;;5093942;28;20487;-84
2023/09/05 07:27:27;;;;;;;0.00;0.00;;;;;;;;;;5077299;28;20391;-84
2023/09/05 07:29:53;;;;;;;0.00;0.00;;;;;;;;;;5094055;28;20052;-84
2023/09/05 07:32:19;;;;;;;0.00;0.00;;;;;;;;;;5094457;28;20441;-83
2023/09/05 07:34:48;;;;;;;0.00;0.00;;;;;;;;;;5093961;28;20036;-85
2023/09/05 07:37:15;;;;;;;0.00;0.00;;;;;;;;;;5094401;28;20040;-83
2023/09/05 07:39:44;;;;;;;0.00;0.00;;;;;;;;;;5076810;28;20040;-82
2023/09/05 07:42:10;;;;;;;0.00;0.00;;;;;;;;;;5094114;28;20479;-83
2023/09/05 07:44:36;;;;;;;0.00;0.00;;;;;;;;;;5094090;28;20062;-83
2023/09/05 07:47:02;;;;;;;0.00;0.00;;;;;;;;;;5095053;28;20538;-83
2023/09/05 07:49:31;;;;;;;0.00;0.00;;;;;;;;;;5095009;28;20051;-85
2023/09/05 07:51:57;;;;;;;0.00;0.00;;;;;;;;;;5076579;28;20047;-83
2023/09/05 07:54:25;;;;;;;0.00;0.00;;;;;;;;;;5093689;28;20051;-83
2023/09/05 07:56:52;;;;;;;0.00;0.00;;;;;;;;;;5095020;28;20072;-83
2023/09/05 07:59:18;;;;;;;0.00;0.00;;;;;;;;;;5093743;28;20426;-82
2023/09/05 08:01:44;;;;;;;0.00;0.00;;;;;;;;;;5095141;28;20119;-84
2023/09/05 08:04:10;;;;;;;0.00;0.00;;;;;;;;;;5093280;28;20048;-83
2023/09/05 08:06:36;;;;;;;0.00;0.00;;;;;;;;;;5094998;28;20047;-83
2023/09/05 08:09:02;;;;;;;0.00;0.00;;;;;;;;;;5093341;28;20040;-82
2023/09/05 08:11:28;;;;;;;0.00;0.00;;;;;;;;;;5093146;28;20047;-82
2023/09/05 08:13:54;;;;;;;0.00;0.00;;;;;;;;;;5093359;28;20123;-83
2023/09/05 08:16:20;;;;;;;0.00;0.00;;;;;;;;;;5094133;28;20059;-82
2023/09/05 08:18:46;;;;;;;0.00;0.00;;;;;;;;;;5094512;28;20059;-82
2023/09/05 08:21:12;;;;;;;0.00;0.00;;;;;;;;;;5092976;28;20040;-82
2023/09/05 08:23:38;;;;;;;0.00;0.00;;;;;;;;;;5094496;28;20422;-82
2023/09/05 08:26:04;;;;;;;0.00;0.00;;;;;;;;;;5092947;28;20105;-81
2023/09/05 08:28:33;;;;;;;0.00;0.00;;;;;;;;;;5093192;28;20052;-82
2023/09/05 08:30:59;;;;;;;0.00;0.00;;;;;;;;;;5094026;28;20056;-82
2023/09/05 08:33:26;;;;;;;0.00;0.00;;;;;;;;;;5092869;28;20048;-83
2023/09/05 08:35:53;;;;;;;33.20;8.30;;;;;;;;;;5094036;28;20574;-84
2023/09/05 08:38:18;;;;;;;9.77;3.45;;;;;;;;;;5092902;28;20035;-84
2023/09/05 08:40:45;;;;;;;1.17;0.95;;;;;;;;;;5094296;28;20395;-83
2023/09/05 08:43:11;;;;;;;1.15;0.77;;;;;;;;;;5092785;28;20479;-83
2023/09/05 08:45:38;;;;;;;0.57;0.28;;;;;;;;;;5093981;28;20411;-84
2023/09/05 08:48:04;;;;;;;0.00;0.00;;;;;;;;;;5092861;28;20047;-82
2023/09/05 08:50:31;;;;;;;0.00;0.00;;;;;;;;;;5092549;28;20121;-82
2023/09/05 08:52:58;;;;;;;0.00;0.00;;;;;;;;;;5093009;28;20032;-83
2023/09/05 08:55:24;;;;;;;0.60;0.20;;;;;;;;;;5093890;28;20044;-83
2023/09/05 08:57:53;;;;;;;0.00;0.00;;;;;;;;;;5093780;28;20117;-82
2023/09/05 09:00:21;;;;;;;0.00;0.00;;;;;;;;;;5092275;28;20420;-83
2023/09/05 09:02:47;;;;;;;0.00;0.00;;;;;;;;;;5075052;28;20062;-83
2023/09/05 09:05:13;;;;;;;0.00;0.00;;;;;;;;;;5092275;28;20074;-83
2023/09/05 09:07:39;;;;;;;0.00;0.00;;;;;;;;;;5093737;28;20044;-83
2023/09/05 09:10:19;;;;;;;0.00;0.00;;;;;;;;;;5092320;28;20054;-83
2023/09/05 09:12:46;;;;;;;0.00;0.00;;;;;;;;;;5091873;28;20044;-82
2023/09/05 09:15:13;;;;;;;0.00;0.00;;;;;;;;;;5074555;28;20156;-83
2023/09/05 09:17:42;;;;;;;0.00;0.00;;;;;;;;;;5093201;28;20062;-83
2023/09/05 09:20:12;;;;;;;0.00;0.00;;;;;;;;;;5091888;28;20078;-83
2023/09/05 09:22:38;;;;;;;0.00;0.00;;;;;;;;;;5091615;28;20051;-82
2023/09/05 09:25:20;;;;;;;0.00;0.00;;;;;;;;;;5093211;28;20340;-83
2023/09/05 09:27:53;;;;;;;0.00;0.00;;;;;;;;;;5092972;28;20040;-82
2023/09/05 09:30:22;;;;;;;0.00;0.00;;;;;;;;;;5091869;28;20525;-83
2023/09/05 09:32:51;;;;;;;0.00;0.00;;;;;;;;;;5091858;28;20365;-83
2023/09/05 09:35:17;;;;;;;0.00;0.00;;;;;;;;;;5093003;28;20044;-83
2023/09/05 09:37:45;;;;;;;0.00;0.00;;;;;;;;;;5092610;28;20040;-82
2023/09/05 09:40:12;;;;;;;0.00;0.00;;;;;;;;;;5091553;28;20044;-83
2023/09/05 09:42:38;;;;;;;0.00;0.00;;;;;;;;;;5091610;28;20036;-83
2023/09/05 09:45:08;;;;;;;0.00;0.00;;;;;;;;;;5074652;28;20514;-83
2023/09/05 09:47:35;;;;;;;0.00;0.00;;;;;;;;;;5091370;28;20513;-83
2023/09/05 09:50:03;;;;;;;0.00;0.00;;;;;;;;;;5092845;28;20122;-83
2023/09/05 09:52:31;;;;;;;0.00;0.00;;;;;;;;;;5091541;28;20503;-83
2023/09/05 09:55:01;;;;;;;0.00;0.00;;;;;;;;;;5091289;28;20075;-83
2023/09/05 09:57:33;;;;;;;0.00;0.00;;;;;;;;;;5092667;28;20044;-83
2023/09/05 10:00:01;;;;;;;0.00;0.00;;;;;;;;;;5092692;28;20104;-82
2023/09/05 10:02:27;;;;;;;0.00;0.00;;;;;;;;;;5091070;28;20044;-83
2023/09/05 10:04:54;;;;;;;0.00;0.00;;;;;;;;;;5092583;28;20071;-82
2023/09/05 10:07:20;;;;;;;0.00;0.00;;;;;;;;;;5091411;28;20391;-82
2023/09/05 10:09:47;;;;;;;0.00;0.00;;;;;;;;;;5091417;28;20040;-83
2023/09/05 10:12:21;;;;;;;0.00;0.00;;;;;;;;;;5074565;28;20127;-83
2023/09/05 10:14:48;;;;;;;0.00;0.00;;;;;;;;;;5091557;28;20056;-83
2023/09/05 10:17:15;;;;;;;0.00;0.00;;;;;;;;;;5091285;28;20036;-83
2023/09/05 10:19:43;;;;;;;0.00;0.00;;;;;;;;;;5091239;28;20082;-83
2023/09/05 10:22:10;;;;;;;0.00;0.00;;;;;;;;;;5091192;28;20044;-82
2023/09/05 10:24:37;;;;;;;0.00;0.00;;;;;;;;;;5092905;28;20083;-83
2023/09/05 10:27:03;;;;;;;0.00;0.00;;;;;;;;;;5093469;28;20143;-82
2023/09/05 10:29:44;;;;;;;0.00;0.00;;;;;;;;;;5096727;28;20482;-82
2023/09/05 10:32:14;;;;;;;0.00;0.00;;;;;;;;;;5095087;28;20040;-82
2023/09/05 10:34:46;;;;;;;0.00;0.00;;;;;;;;;;5094904;28;20048;-82
2023/09/05 10:37:13;;;;;;;0.00;0.00;;;;;;;;;;5096235;28;20047;-82
2023/09/05 10:39:44;;;;;;;0.00;0.00;;;;;;;;;;5095154;28;20119;-82
2023/09/05 10:42:11;;;;;;;0.00;0.00;;;;;;;;;;5094754;28;20044;-82
2023/09/05 10:44:41;;;;;;;0.00;0.00;;;;;;;;;;5095138;28;20126;-83
2023/09/05 10:47:28;;;;;;;0.00;0.00;;;;;;;;;;5096052;28;20048;-82
2023/09/05 10:50:06;;;;;;;0.00;0.00;;;;;;;;;;5094822;28;20055;-83
2023/09/05 10:52:32;;;;;;;0.00;0.00;;;;;;;;;;5094751;28;20114;-83
2023/09/05 10:54:59;;;;;;;0.00;0.00;;;;;;;;;;5094649;28;20048;-83
2023/09/05 10:57:33;;;;;;;0.00;0.00;;;;;;;;;;5078119;28;20039;-85
2023/09/05 10:59:59;;;;;;;0.00;0.00;;;;;;;;;;5077909;28;20040;-84
2023/09/05 11:02:25;;;;;;;0.00;0.00;;;;;;;;;;5095968;28;20407;-83
2023/09/05 11:04:54;;;;;;;0.00;0.00;;;;;;;;;;5095835;28;20062;-83
2023/09/05 11:07:21;;;;;;;0.00;0.00;;;;;;;;;;5094613;28;20055;-83
2023/09/05 11:09:54;;;;;;;0.00;0.00;;;;;;;;;;5095782;28;20119;-83
2023/09/05 11:12:21;;;;;;;0.00;0.00;;;;;;;;;;5094317;28;20066;-84
2023/09/05 11:14:47;;;;;;;0.00;0.00;;;;;;;;;;5077015;28;20090;-84
2023/09/05 11:17:17;;;;;;;0.00;0.00;;;;;;;;;;5094058;28;20043;-84
2023/09/05 11:19:45;;;;;;;0.00;0.00;;;;;;;;;;5095270;28;20039;-84
2023/09/05 11:22:11;;;;;;;0.00;0.00;;;;;;;;;;5095185;28;20491;-84
2023/09/05 11:24:47;;;;;;;0.00;0.00;;;;;;;;;;5095468;28;20088;-84
2023/09/05 11:27:25;;;;;;;0.00;0.00;;;;;;;;;;5094161;28;20122;-84
2023/09/05 11:29:52;;;;;;;0.00;0.00;;;;;;;;;;5094284;28;20043;-83
2023/09/05 11:32:18;;;;;;;0.00;0.00;;;;;;;;;;5093946;28;20089;-84
2023/09/05 11:34:48;;;;;;;0.00;0.00;;;;;;;;;;5093728;28;20040;-83
2023/09/05 11:37:15;;;;;;;0.00;0.00;;;;;;;;;;5094977;28;20036;-83
2023/09/05 11:39:41;;;;;;;0.00;0.00;;;;;;;;;;5077009;28;20459;-85
2023/09/05 11:42:18;;;;;;;0.00;0.00;;;;;;;;;;5093497;28;20075;-82
2023/09/05 11:44:44;;;;;;;0.00;0.00;;;;;;;;;;5094901;28;20093;-82
2023/09/05 11:47:11;;;;;;;0.00;0.00;;;;;;;;;;5093532;28;20052;-83
2023/09/05 11:49:37;;;;;;;0.00;0.00;;;;;;;;;;5076600;28;20044;-83
2023/09/05 11:52:03;;;;;;;0.00;0.00;;;;;;;;;;5093575;28;20050;-83
2023/09/05 11:54:29;;;;;;;0.00;0.00;;;;;;;;;;5094826;28;20040;-83
2023/09/05 11:56:56;;;;;;;0.00;0.00;;;;;;;;;;5093719;28;20035;-83
2023/09/05 11:59:23;;;;;;;0.00;0.00;;;;;;;;;;5094250;28;20037;-83
2023/09/05 12:01:50;;;;;;;0.00;0.00;;;;;;;;;;5093608;28;20351;-83
2023/09/05 12:04:16;;;;;;;0.00;0.00;;;;;;;;;;5076298;28;20047;-83
2023/09/05 12:06:42;;;;;;;0.00;0.00;;;;;;;;;;5094587;28;20036;-83
2023/09/05 12:09:09;;;;;;;0.00;0.00;;;;;;;;;;5094252;28;20468;-83
2023/09/05 12:11:35;;;;;;;0.00;0.00;;;;;;;;;;5093259;28;20075;-83
2023/09/05 12:14:02;;;;;;;0.00;0.00;;;;;;;;;;5093058;28;20075;-83
2023/09/05 12:16:28;;;;;;;0.00;0.00;;;;;;;;;;5094263;28;20108;-83
2023/09/05 12:19:01;;;;;;;0.00;0.00;;;;;;;;;;5093123;28;20044;-83
2023/09/05 12:21:57;;;;;;;0.00;0.00;;;;;;;;;;5092989;28;20044;-83
2023/09/05 12:24:24;;;;;;;0.00;0.00;;;;;;;;;;5088923;28;20357;-83
2023/09/05 12:26:52;;;;;;;0.00;0.00;;;;;;;;;;5093277;28;20150;-83
2023/09/05 12:29:21;;;;;;;0.00;0.00;;;;;;;;;;5093982;28;20486;-83
2023/09/05 12:31:47;;;;;;;0.00;0.00;;;;;;;;;;5076028;28;20047;-83
2023/09/05 12:34:33;;;;;;;0.00;0.00;;;;;;;;;;5092946;28;20454;-83
2023/09/05 12:36:59;;;;;;;0.00;0.00;;;;;;;;;;5094499;28;20073;-82
2023/09/05 12:39:25;;;;;;;0.00;0.00;;;;;;;;;;5092697;28;20420;-83
2023/09/05 12:41:51;;;;;;;0.00;0.00;;;;;;;;;;5094281;28;20040;-83
2023/09/05 12:44:17;;;;;;;0.00;0.00;;;;;;;;;;5094456;28;20044;-84
2023/09/05 12:46:43;;;;;;;0.00;0.00;;;;;;;;;;5093261;28;20043;-83
2023/09/05 12:49:10;;;;;;;0.00;0.00;;;;;;;;;;5094397;28;20047;-84
2023/09/05 12:51:36;;;;;;;0.00;0.00;;;;;;;;;;5094192;28;20356;-83
2023/09/05 12:54:04;;;;;;;0.00;0.00;;;;;;;;;;5092395;28;20040;-84
2023/09/05 12:56:30;;;;;;;0.00;0.00;;;;;;;;;;5093883;28;20097;-84
2023/09/05 12:58:56;;;;;;;0.00;0.00;;;;;;;;;;5093093;28;20039;-83
2023/09/05 13:01:22;;;;;;;0.00;0.00;;;;;;;;;;5094368;28;20040;-83
2023/09/05 13:03:49;;;;;;;0.00;0.00;;;;;;;;;;5092391;28;20554;-83
2023/09/05 13:06:17;;;;;;;0.00;0.00;;;;;;;;;;5075665;28;20050;-84
2023/09/05 13:08:43;;;;;;;0.00;0.00;;;;;;;;;;5075489;28;20040;-83
2023/09/05 13:11:10;;;;;;;0.00;0.00;;;;;;;;;;5092284;28;20534;-83
2023/09/05 13:13:36;;;;;;;0.00;0.00;;;;;;;;;;5093392;28;20127;-84
2023/09/05 13:16:02;;;;;;;0.00;0.00;;;;;;;;;;5093392;28;20108;-83
2023/09/05 13:18:28;;;;;;;0.00;0.00;;;;;;;;;;5093321;28;20044;-83
2023/09/05 13:20:54;;;;;;;0.00;0.00;;;;;;;;;;5075455;28;20031;-84
2023/09/05 13:23:20;;;;;;;0.00;0.00;;;;;;;;;;5075007;28;20487;-83
2023/09/05 13:25:47;;;;;;;0.00;0.00;;;;;;;;;;5093490;28;20036;-83
2023/09/05 13:28:13;;;;;;;0.00;0.00;;;;;;;;;;5074939;28;20042;-84
2023/09/05 13:30:39;;;;;;;0.00;0.00;;;;;;;;;;5091544;28;20032;-83
2023/09/05 13:33:05;;;;;;;0.00;0.00;;;;;;;;;;5091753;28;20054;-83
2023/09/05 13:35:31;;;;;;;0.00;0.00;;;;;;;;;;5092852;28;20036;-83
2023/09/05 13:37:57;;;;;;;0.00;0.00;;;;;;;;;;5092993;28;20044;-83
2023/09/05 13:40:23;;;;;;;0.00;0.00;;;;;;;;;;5091465;28;20085;-81
2023/09/05 13:42:49;;;;;;;0.00;0.00;;;;;;;;;;5092839;28;20040;-81
2023/09/05 13:45:15;;;;;;;0.00;0.00;;;;;;;;;;5092759;28;20395;-81
2023/09/05 13:47:42;;;;;;;0.00;0.00;;;;;;;;;;5092266;28;20051;-81
2023/09/05 13:50:09;;;;;;;0.00;0.00;;;;;;;;;;5091445;28;20052;-81
2023/09/05 13:52:35;;;;;;;0.00;0.00;;;;;;;;;;5074858;28;20127;-81
2023/09/05 13:55:01;;;;;;;0.00;0.00;;;;;;;;;;5092620;28;20040;-81
2023/09/05 13:57:27;;;;;;;0.00;0.00;;;;;;;;;;5074835;28;20117;-81
2023/09/05 13:59:53;;;;;;;0.00;0.00;;;;;;;;;;5091979;28;20078;-81
2023/09/05 14:02:19;;;;;;;0.00;0.00;;;;;;;;;;5090617;28;20036;-81
2023/09/05 14:04:45;;;;;;;0.00;0.00;;;;;;;;;;5074392;28;20051;-81
2023/09/05 14:07:11;;;;;;;0.00;0.00;;;;;;;;;;5091385;28;20040;-81
2023/09/05 14:09:37;;;;;;;0.00;0.00;;;;;;;;;;5092345;28;20119;-81
2023/09/05 14:12:04;;;;;;;0.00;0.00;;;;;;;;;;5092557;28;20036;-81
2023/09/05 14:14:30;;;;;;;0.00;0.00;;;;;;;;;;5092028;28;20044;-81
2023/09/05 14:16:56;;;;;;;0.00;0.00;;;;;;;;;;5092551;28;20052;-81
2023/09/05 14:19:25;;;;;;;0.00;0.00;;;;;;;;;;5092386;28;20036;-81
2023/09/05 14:21:50;;;;;;;0.00;0.00;;;;;;;;;;5092378;28;20483;-81
2023/09/05 14:24:16;;;;;;;0.00;0.00;;;;;;;;;;5092220;28;20050;-81
2023/09/05 14:26:43;;;;;;;0.00;0.00;;;;;;;;;;5091222;28;20052;-81
2023/09/05 14:29:09;;;;;;;0.00;0.00;;;;;;;;;;5092314;28;20071;-81
2023/09/05 14:31:35;;;;;;;0.00;0.00;;;;;;;;;;5091169;28;20161;-81
2023/09/05 14:34:01;;;;;;;0.00;0.00;;;;;;;;;;5092247;28;20043;-81
2023/09/05 14:36:27;;;;;;;0.00;0.00;;;;;;;;;;5090976;28;20069;-81
2023/09/05 14:38:53;;;;;;;0.00;0.00;;;;;;;;;;5090710;28;20116;-81
2023/09/05 14:41:19;;;;;;;0.00;0.00;;;;;;;;;;5091337;28;20238;-82